Time;durP1;ratioP1;P1;durP2;ratioP2;P2;SDS_P1;SDS_P2;PMS_P1;PMS_P2;Temp;Humidity;BMP_temperature;BMP_pressure;BME280_temperature;BME280_humidity;BME280_pressure;Samples;Min_cycle;Max_cycle;Signal;HPM_P1;HPM_P2
2023/09/26 00:03:01;;;;;;;5.50;5.13;;;15.20;99.90;;;;;;10328940;28;20227;-78
2023/09/26 00:08:03;;;;;;;5.93;5.40;;;15.10;99.90;;;;;;10347252;28;20242;-78
2023/09/26 00:13:06;;;;;;;5.43;5.13;;;15.10;99.90;;;;;;10348440;28;20226;-77
2023/09/26 00:18:09;;;;;;;6.00;5.60;;;15.10;99.90;;;;;;10356307;28;20213;-78
2023/09/26 00:23:12;;;;;;;5.47;5.17;;;15.10;99.90;;;;;;10341787;28;20234;-78
2023/09/26 00:28:14;;;;;;;6.17;5.77;;;15.00;99.90;;;;;;10328165;28;20250;-78
2023/09/26 00:33:18;;;;;;;6.30;5.93;;;15.00;99.90;;;;;;10339776;28;20310;-77
2023/09/26 00:38:20;;;;;;;5.57;5.17;;;15.00;99.90;;;;;;10321467;28;20202;-77
2023/09/26 00:43:23;;;;;;;5.93;5.57;;;15.00;99.90;;;;;;10348036;28;20226;-77
2023/09/26 00:48:27;;;;;;;6.10;5.70;;;15.00;99.90;;;;;;10354946;28;20258;-78
2023/09/26 00:53:30;;;;;;;5.83;5.43;;;14.90;99.90;;;;;;10338322;28;20224;-78
2023/09/26 00:58:32;;;;;;;6.30;5.90;;;14.90;99.90;;;;;;10328493;28;20230;-78
2023/09/26 01:03:36;;;;;;;5.80;5.40;;;14.90;99.90;;;;;;10305596;28;20239;-78
2023/09/26 01:08:38;;;;;;;7.20;6.70;;;14.90;99.90;;;;;;10327018;28;20234;-78
2023/09/26 01:13:40;;;;;;;6.63;6.10;;;14.80;99.90;;;;;;10330970;28;20266;-78
2023/09/26 01:18:44;;;;;;;6.37;5.97;;;14.80;99.90;;;;;;10372881;28;20233;-78
2023/09/26 01:23:56;;;;;;;6.23;5.63;;;14.80;99.90;;;;;;10344675;28;20235;-78
2023/09/26 01:28:58;;;;;;;6.53;6.00;;;14.70;99.90;;;;;;10376936;28;20227;-78
2023/09/26 01:34:00;;;;;;;6.60;5.97;;;14.70;99.90;;;;;;10332218;28;20250;-78
2023/09/26 01:39:05;;;;;;;5.97;5.57;;;14.70;99.90;;;;;;10321130;28;20687;-78
2023/09/26 01:44:08;;;;;;;5.40;5.00;;;14.70;99.90;;;;;;10327094;28;20242;-77
2023/09/26 01:49:11;;;;;;;6.53;6.00;;;14.70;99.90;;;;;;10344539;28;20257;-77
2023/09/26 01:54:14;;;;;;;6.20;5.80;;;14.60;99.90;;;;;;10330239;28;20750;-77
2023/09/26 01:59:16;;;;;;;6.87;6.20;;;14.60;99.90;;;;;;10325359;28;20205;-78
2023/09/26 02:04:18;;;;;;;6.30;5.70;;;14.60;99.90;;;;;;10321322;28;20232;-77
2023/09/26 02:09:24;;;;;;;8.87;6.53;;;14.60;99.90;;;;;;10342045;28;20706;-77
2023/09/26 02:14:26;;;;;;;6.20;5.70;;;14.60;99.90;;;;;;10316192;28;20797;-78
2023/09/26 02:19:28;;;;;;;6.00;5.60;;;14.60;99.90;;;;;;10369429;28;20243;-78
2023/09/26 02:24:31;;;;;;;5.60;5.20;;;14.50;99.90;;;;;;10324008;28;20235;-78
2023/09/26 02:29:33;;;;;;;6.47;6.07;;;14.50;99.90;;;;;;10346825;28;20694;-78
2023/09/26 02:34:35;;;;;;;6.33;5.93;;;14.50;99.90;;;;;;10311916;28;20223;-78
2023/09/26 02:39:39;;;;;;;5.97;5.57;;;14.50;99.90;;;;;;10332937;28;20588;-78
2023/09/26 02:44:41;;;;;;;6.23;5.73;;;14.40;99.90;;;;;;10349064;28;20216;-77
2023/09/26 02:49:44;;;;;;;6.10;5.70;;;14.40;99.90;;;;;;10342516;28;20311;-77
2023/09/26 02:54:47;;;;;;;6.20;5.80;;;14.40;99.90;;;;;;10332117;28;20220;-77
2023/09/26 02:59:49;;;;;;;6.20;5.80;;;14.30;99.90;;;;;;10333451;28;20220;-77
2023/09/26 03:04:51;;;;;;;6.50;6.10;;;14.30;99.90;;;;;;10363163;28;20286;-78
2023/09/26 03:09:56;;;;;;;6.00;5.50;;;14.30;99.90;;;;;;10329716;28;20232;-78
2023/09/26 03:14:58;;;;;;;5.90;5.50;;;14.30;99.90;;;;;;10377062;28;20223;-78
2023/09/26 03:20:01;;;;;;;6.60;6.00;;;14.30;99.90;;;;;;10332201;28;20200;-77
2023/09/26 03:25:05;;;;;;;6.03;5.50;;;14.30;99.90;;;;;;10393152;23;20266;-80
2023/09/26 03:30:09;;;;;;;6.20;5.70;;;14.30;99.90;;;;;;10386264;28;20840;-80
2023/09/26 03:35:11;;;;;;;6.00;5.60;;;14.30;99.90;;;;;;10426852;28;20233;-80
2023/09/26 03:40:14;;;;;;;7.23;6.53;;;14.30;99.90;;;;;;10421781;28;20194;-80
2023/09/26 03:45:17;;;;;;;6.27;5.80;;;14.30;99.90;;;;;;10410499;28;20675;-80
2023/09/26 03:50:19;;;;;;;5.67;5.27;;;14.30;99.90;;;;;;10404772;28;20226;-80
2023/09/26 03:55:23;;;;;;;6.70;6.30;;;14.20;99.90;;;;;;10384205;28;20238;-80
2023/09/26 04:00:27;;;;;;;5.63;5.30;;;14.20;99.90;;;;;;10403586;28;20623;-80
2023/09/26 04:05:29;;;;;;;6.70;5.80;;;14.20;99.90;;;;;;10399141;28;20231;-80
2023/09/26 04:10:37;;;;;;;5.87;5.47;;;14.20;99.90;;;;;;10400833;28;20347;-80
2023/09/26 04:15:39;;;;;;;5.77;5.37;;;14.20;99.90;;;;;;10404770;28;20229;-80
2023/09/26 04:20:42;;;;;;;8.07;7.27;;;14.20;99.90;;;;;;10363697;28;20230;-80
2023/09/26 04:25:45;;;;;;;7.00;6.40;;;14.10;99.90;;;;;;10393353;28;20245;-80
2023/09/26 04:30:47;;;;;;;7.00;6.50;;;14.10;99.90;;;;;;10404504;28;20590;-80
2023/09/26 04:35:57;;;;;;;8.20;7.50;;;14.10;99.90;;;;;;10392461;28;20293;-80
2023/09/26 04:41:03;;;;;;;8.97;8.27;;;14.10;99.90;;;;;;10392652;28;20207;-80
2023/09/26 04:46:11;;;;;;;9.60;8.80;;;14.20;99.90;;;;;;10398840;28;20222;-77
2023/09/26 04:51:15;;;;;;;10.20;9.33;;;14.10;99.90;;;;;;10404776;28;20305;-80
2023/09/26 04:56:18;;;;;;;9.53;8.80;;;14.10;99.90;;;;;;10383525;28;20613;-80
2023/09/26 05:01:24;;;;;;;9.70;8.90;;;14.10;99.90;;;;;;10387053;28;20740;-80
2023/09/26 05:06:29;;;;;;;10.90;9.90;;;14.10;99.90;;;;;;10386244;28;20459;-80
2023/09/26 05:11:32;;;;;;;10.23;8.93;;;14.00;99.90;;;;;;10404481;28;20226;-80
2023/09/26 05:16:34;;;;;;;9.67;8.87;;;14.00;99.90;;;;;;10403184;28;20226;-80
2023/09/26 05:21:36;;;;;;;9.37;8.57;;;14.00;99.90;;;;;;10397766;28;21056;-79
2023/09/26 05:26:40;;;;;;;9.67;8.87;;;14.00;99.90;;;;;;10398375;28;20689;-79
2023/09/26 05:31:42;;;;;;;10.10;9.20;;;14.00;99.90;;;;;;10402513;28;20229;-79
2023/09/26 05:36:45;;;;;;;9.57;8.77;;;14.00;99.90;;;;;;10405402;28;20203;-79
2023/09/26 05:41:48;;;;;;;10.83;9.90;;;14.00;99.90;;;;;;10388602;28;20249;-79
2023/09/26 05:46:50;;;;;;;11.83;10.80;;;14.00;99.90;;;;;;10409548;28;20210;-80
2023/09/26 05:51:52;;;;;;;10.77;9.87;;;14.00;99.90;;;;;;10401849;28;20230;-80
2023/09/26 05:56:56;;;;;;;11.20;10.17;;;14.00;99.90;;;;;;10415069;28;20200;-80
2023/09/26 06:01:58;;;;;;;11.13;10.20;;;14.00;99.90;;;;;;10394342;28;20254;-80
2023/09/26 06:07:00;;;;;;;10.83;9.93;;;14.00;99.90;;;;;;10407319;28;20206;-80
2023/09/26 06:12:04;;;;;;;11.40;10.23;;;14.10;99.90;;;;;;10404780;28;20222;-80
2023/09/26 06:17:06;;;;;;;10.63;9.60;;;14.10;99.90;;;;;;10411425;28;20690;-80
2023/09/26 06:22:08;;;;;;;10.67;9.73;;;14.10;99.90;;;;;;10402242;28;20774;-80
2023/09/26 06:27:12;;;;;;;10.30;9.30;;;14.10;99.90;;;;;;10414257;28;20268;-80
2023/09/26 06:32:14;;;;;;;10.50;9.50;;;14.10;99.90;;;;;;10392673;28;20310;-80
2023/09/26 06:37:16;;;;;;;9.07;8.37;;;14.10;99.90;;;;;;10379778;28;20204;-80
2023/09/26 06:42:20;;;;;;;9.63;8.83;;;14.20;99.90;;;;;;10387196;28;20385;-80
2023/09/26 06:47:22;;;;;;;9.47;8.67;;;14.20;99.90;;;;;;10419660;28;20679;-81
2023/09/26 06:52:24;;;;;;;9.97;9.00;;;14.30;99.90;;;;;;10398648;28;20222;-80
2023/09/26 06:57:28;;;;;;;10.93;9.80;;;14.30;99.90;;;;;;10399816;28;20539;-80
2023/09/26 07:02:30;;;;;;;10.47;9.47;;;14.40;99.90;;;;;;10409242;28;20569;-80
2023/09/26 07:07:32;;;;;;;9.40;8.60;;;14.40;99.90;;;;;;10399127;28;20216;-80
2023/09/26 07:12:37;;;;;;;10.40;9.50;;;14.40;99.90;;;;;;10393989;28;20215;-81
2023/09/26 07:17:39;;;;;;;11.00;9.73;;;14.50;99.90;;;;;;10390779;28;20208;-80
2023/09/26 07:22:41;;;;;;;9.40;8.67;;;14.60;99.90;;;;;;10399306;28;20626;-81
2023/09/26 07:27:46;;;;;;;10.50;9.60;;;14.60;99.90;;;;;;10378230;28;20219;-81
2023/09/26 07:32:48;;;;;;;9.17;8.30;;;14.70;99.90;;;;;;10412784;28;20306;-80
2023/09/26 07:37:50;;;;;;;9.70;8.73;;;14.80;99.90;;;;;;10423406;28;20206;-81
2023/09/26 07:42:53;;;;;;;9.03;8.30;;;14.90;99.90;;;;;;10397599;28;20292;-80
2023/09/26 07:47:55;;;;;;;10.13;9.33;;;15.00;99.90;;;;;;10419864;28;20218;-81
2023/09/26 07:52:57;;;;;;;9.13;8.33;;;15.00;99.90;;;;;;10398963;28;20642;-80
2023/09/26 07:58:01;;;;;;;9.07;8.47;;;15.20;99.90;;;;;;10391529;28;20195;-80
2023/09/26 08:03:03;;;;;;;8.83;8.13;;;15.30;99.90;;;;;;10405973;28;20687;-81
2023/09/26 08:08:06;;;;;;;9.00;8.10;;;15.40;99.90;;;;;;10391892;28;20220;-80
2023/09/26 08:13:09;;;;;;;11.63;8.37;;;15.50;99.90;;;;;;10412490;28;20285;-81
2023/09/26 08:18:11;;;;;;;8.33;7.63;;;15.60;99.90;;;;;;10404824;28;20191;-80
2023/09/26 08:23:13;;;;;;;8.30;7.50;;;15.70;99.90;;;;;;10397307;28;20230;-80
2023/09/26 08:28:17;;;;;;;10.30;7.30;;;15.80;99.90;;;;;;10390237;28;20326;-81
2023/09/26 08:33:19;;;;;;;7.60;6.83;;;15.90;99.90;;;;;;10389587;28;20309;-80
2023/09/26 08:38:21;;;;;;;7.60;6.97;;;16.00;99.90;;;;;;10413916;28;20198;-80
2023/09/26 08:43:26;;;;;;;9.30;8.40;;;16.10;99.90;;;;;;10402258;28;20280;-80
2023/09/26 08:48:28;;;;;;;7.90;7.10;;;16.20;99.90;;;;;;10391771;28;20333;-80
2023/09/26 08:53:31;;;;;;;11.67;7.37;;;16.30;99.90;;;;;;10399105;28;20230;-80
2023/09/26 08:58:35;;;;;;;8.23;7.53;;;16.40;99.90;;;;;;10394613;28;20571;-80
2023/09/26 09:03:37;;;;;;;9.73;7.40;;;16.50;99.90;;;;;;10397170;28;20238;-80
2023/09/26 09:08:40;;;;;;;6.67;6.10;;;16.50;99.90;;;;;;10380338;28;20226;-80
2023/09/26 09:13:43;;;;;;;7.23;6.60;;;16.60;99.90;;;;;;10418037;28;20224;-79
2023/09/26 09:18:47;;;;;;;6.90;6.30;;;16.70;99.90;;;;;;10393498;28;20629;-80
2023/09/26 09:23:50;;;;;;;6.57;5.97;;;16.80;99.90;;;;;;10428532;22;20261;-77
2023/09/26 09:28:55;;;;;;;7.40;6.70;;;16.90;99.90;;;;;;10396713;28;20222;-77
2023/09/26 09:33:59;;;;;;;8.07;6.13;;;17.10;99.90;;;;;;10389066;28;20604;-76
2023/09/26 09:39:03;;;;;;;7.13;6.57;;;17.30;99.90;;;;;;10388939;28;20199;-77
2023/09/26 09:44:07;;;;;;;5.97;5.50;;;17.60;99.90;;;;;;10388161;28;20229;-76
2023/09/26 09:49:11;;;;;;;5.50;5.10;;;17.90;99.90;;;;;;10404699;28;20701;-77
2023/09/26 09:54:18;;;;;;;6.30;5.90;;;18.10;99.90;;;;;;10409227;28;20229;-76
2023/09/26 09:59:23;;;;;;;10.50;6.10;;;18.40;99.90;;;;;;10359439;28;20200;-76
2023/09/26 10:04:25;;;;;;;6.20;5.70;;;18.50;99.90;;;;;;10382981;28;20284;-77
2023/09/26 10:09:29;;;;;;;7.00;5.93;;;18.50;99.90;;;;;;10413105;28;20227;-77
2023/09/26 10:14:33;;;;;;;6.37;5.73;;;18.50;99.90;;;;;;10377891;28;20230;-77
2023/09/26 10:19:35;;;;;;;6.30;5.70;;;18.50;99.90;;;;;;10395709;28;20199;-77
2023/09/26 10:24:46;;;;;;;5.13;4.80;;;18.50;99.90;;;;;;10391596;28;20254;-77
2023/09/26 10:29:52;;;;;;;6.00;5.50;;;18.40;99.90;;;;;;10384736;28;20226;-77
2023/09/26 10:34:54;;;;;;;6.10;5.60;;;18.40;99.90;;;;;;10379982;28;20768;-77
2023/09/26 10:39:56;;;;;;;6.50;5.80;;;18.40;99.90;;;;;;10364774;28;20199;-77
2023/09/26 10:45:00;;;;;;;5.60;5.20;;;18.40;99.90;;;;;;10385529;28;20219;-78
2023/09/26 10:50:03;;;;;;;5.10;4.80;;;18.40;99.90;;;;;;10396527;28;20592;-76
2023/09/26 10:55:06;;;;;;;4.97;4.50;;;18.40;99.90;;;;;;10367064;28;20725;-78
2023/09/26 11:00:15;;;;;;;5.67;5.07;;;18.40;99.90;;;;;;10383810;28;20278;-78
2023/09/26 11:05:17;;;;;;;5.00;4.60;;;18.40;99.90;;;;;;10390860;28;20223;-77
2023/09/26 11:10:19;;;;;;;5.63;4.87;;;18.40;99.90;;;;;;10385872;28;20242;-77
2023/09/26 11:15:23;;;;;;;4.20;3.90;;;18.40;99.90;;;;;;10387961;28;20214;-77
2023/09/26 11:20:27;;;;;;;4.40;4.00;;;18.50;99.90;;;;;;10388055;28;20298;-78
2023/09/26 11:25:31;;;;;;;4.33;4.03;;;18.60;99.90;;;;;;10378161;28;20238;-78
2023/09/26 11:30:35;;;;;;;5.37;4.00;;;18.60;99.90;;;;;;10383764;28;20318;-77
2023/09/26 11:35:38;;;;;;;4.37;3.57;;;18.60;99.90;;;;;;10366083;28;20609;-77
2023/09/26 11:40:40;;;;;;;3.73;3.43;;;18.70;99.90;;;;;;10403304;28;20233;-78
2023/09/26 11:45:44;;;;;;;3.47;3.27;;;18.70;99.90;;;;;;10385872;28;20227;-77
2023/09/26 11:50:46;;;;;;;3.00;2.80;;;18.80;99.90;;;;;;10404606;28;20219;-77
2023/09/26 11:55:51;;;;;;;3.90;3.50;;;18.80;99.90;;;;;;10370555;28;20227;-77
2023/09/26 12:00:55;;;;;;;3.50;3.20;;;18.80;99.90;;;;;;10398347;28;20575;-77
2023/09/26 12:05:57;;;;;;;3.60;3.30;;;18.80;99.90;;;;;;10382521;28;20230;-77
2023/09/26 12:10:59;;;;;;;3.13;2.93;;;18.70;99.90;;;;;;10380905;28;20283;-77
2023/09/26 12:16:02;;;;;;;3.27;3.07;;;18.70;99.90;;;;;;10387317;28;20223;-77
2023/09/26 12:21:05;;;;;;;3.03;2.83;;;18.70;99.90;;;;;;10409785;28;20222;-77
2023/09/26 12:26:07;;;;;;;5.23;3.10;;;18.70;99.90;;;;;;10412803;28;20269;-77
2023/09/26 12:31:10;;;;;;;4.57;2.97;;;18.70;99.90;;;;;;10400586;28;20220;-77
2023/09/26 12:36:12;;;;;;;2.60;2.50;;;18.70;99.90;;;;;;10379721;28;20227;-77
2023/09/26 12:41:15;;;;;;;3.23;2.93;;;18.80;99.80;;;;;;10383749;28;20278;-77
2023/09/26 12:46:18;;;;;;;2.67;2.50;;;18.80;99.90;;;;;;10380333;28;20231;-77
2023/09/26 12:51:20;;;;;;;3.23;2.87;;;18.90;99.90;;;;;;10369338;28;20249;-78
2023/09/26 12:56:23;;;;;;;2.63;2.47;;;18.90;99.90;;;;;;10413879;28;20364;-77
2023/09/26 13:01:27;;;;;;;2.33;2.13;;;19.00;99.70;;;;;;10398386;28;20227;-77
2023/09/26 13:06:30;;;;;;;2.47;2.27;;;19.10;98.80;;;;;;10379520;28;20237;-77
2023/09/26 13:11:32;;;;;;;3.57;2.63;;;19.20;99.10;;;;;;10362810;28;20222;-77
2023/09/26 13:16:36;;;;;;;2.70;2.50;;;19.20;99.10;;;;;;10352720;28;20223;-77
2023/09/26 13:21:38;;;;;;;3.23;2.27;;;19.20;98.90;;;;;;10376546;28;20199;-77
2023/09/26 13:26:40;;;;;;;2.33;2.23;;;19.30;99.00;;;;;;10394657;28;20741;-77
2023/09/26 13:31:46;;;;;;;2.10;2.00;;;19.40;98.50;;;;;;10394025;28;20233;-77
2023/09/26 13:36:48;;;;;;;2.20;2.10;;;19.50;97.90;;;;;;10360425;28;20239;-77
2023/09/26 13:41:50;;;;;;;2.20;2.00;;;19.60;97.90;;;;;;10383852;28;20203;-76
2023/09/26 13:46:54;;;;;;;2.27;2.17;;;19.70;98.00;;;;;;10403876;28;20702;-77
2023/09/26 13:51:57;;;;;;;2.47;2.27;;;19.70;97.00;;;;;;10382388;28;20258;-77
2023/09/26 13:56:59;;;;;;;1.77;1.67;;;19.80;97.60;;;;;;10381485;28;20237;-76
2023/09/26 14:02:04;;;;;;;2.00;1.90;;;19.80;97.10;;;;;;10388114;28;20222;-77
2023/09/26 14:07:06;;;;;;;2.10;2.00;;;19.80;97.60;;;;;;10392064;28;20230;-77
2023/09/26 14:12:08;;;;;;;3.33;2.10;;;19.80;96.70;;;;;;10390754;28;20311;-77
2023/09/26 14:17:12;;;;;;;2.00;1.90;;;19.90;96.70;;;;;;10402004;28;20202;-77
2023/09/26 14:22:14;;;;;;;1.80;1.70;;;19.90;97.00;;;;;;10379995;28;20214;-77
2023/09/26 14:27:17;;;;;;;2.00;1.90;;;19.90;97.30;;;;;;10366142;28;20213;-77
2023/09/26 14:32:20;;;;;;;1.80;1.70;;;19.80;97.60;;;;;;10382434;28;20222;-77
2023/09/26 14:37:22;;;;;;;2.20;2.10;;;19.80;96.90;;;;;;10364026;28;20199;-77
2023/09/26 14:42:24;;;;;;;1.63;1.53;;;20.00;96.30;;;;;;10380263;28;20217;-77
2023/09/26 14:47:28;;;;;;;1.90;1.80;;;20.00;95.70;;;;;;10399255;28;20203;-77
2023/09/26 14:52:30;;;;;;;1.80;1.70;;;20.10;95.40;;;;;;10384668;28;20238;-78
2023/09/26 14:57:32;;;;;;;1.87;1.77;;;20.20;95.80;;;;;;10421065;28;20220;-77
2023/09/26 15:02:36;;;;;;;2.17;1.97;;;20.20;96.10;;;;;;10390138;28;20311;-78
2023/09/26 15:07:38;;;;;;;2.80;2.00;;;20.20;95.80;;;;;;10385952;28;20291;-77
2023/09/26 15:12:40;;;;;;;1.77;1.67;;;20.10;97.20;;;;;;10356081;28;20234;-77
2023/09/26 15:17:43;;;;;;;2.40;1.97;;;20.00;97.30;;;;;;10388504;28;20195;-77
2023/09/26 15:22:50;;;;;;;3.50;2.30;;;19.90;97.70;;;;;;10426540;22;20665;-80
2023/09/26 15:28:00;;;;;;;2.60;2.43;;;19.90;97.00;;;;;;10398608;28;20207;-80
2023/09/26 15:33:20;;;;;;;3.10;2.23;;;19.90;96.80;;;;;;10391973;28;20224;-81
2023/09/26 15:38:22;;;;;;;2.73;2.53;;;20.10;96.20;;;;;;10349990;28;20651;-81
2023/09/26 15:43:29;;;;;;;2.80;2.60;;;20.30;96.60;;;;;;10376405;28;20234;-81
2023/09/26 15:48:40;;;;;;;4.53;2.40;;;20.30;96.50;;;;;;10379954;28;20199;-81
2023/09/26 15:53:44;;;;;;;4.17;2.50;;;20.30;96.60;;;;;;10372321;28;20262;-81
2023/09/26 15:58:46;;;;;;;2.40;2.17;;;20.30;97.00;;;;;;10375581;28;20227;-81
2023/09/26 16:03:50;;;;;;;2.63;2.40;;;20.20;97.60;;;;;;10340218;28;20255;-81
2023/09/26 16:09:08;;;;;;;2.47;2.37;;;20.10;98.20;;;;;;10376794;28;20211;-81
2023/09/26 16:14:23;;;;;;;2.70;2.50;;;20.00;98.00;;;;;;10372204;28;20273;-81
2023/09/26 16:19:35;;;;;;;2.50;2.40;;;20.10;98.00;;;;;;10367138;28;20210;-81
2023/09/26 16:24:45;;;;;;;3.10;2.90;;;20.10;97.20;;;;;;10378069;28;20230;-82
2023/09/26 16:29:52;;;;;;;2.90;2.70;;;20.10;97.80;;;;;;10366847;28;20523;-81
2023/09/26 16:35:07;;;;;;;3.03;2.83;;;20.00;97.70;;;;;;10361596;28;20227;-81
2023/09/26 16:40:26;;;;;;;3.00;2.77;;;20.10;98.20;;;;;;10350591;28;20358;-81
2023/09/26 16:45:35;;;;;;;3.57;2.93;;;20.10;98.60;;;;;;10342404;28;20237;-81
2023/09/26 16:51:12;;;;;;;3.13;2.93;;;20.00;98.90;;;;;;10347476;28;20279;-81
2023/09/26 16:56:36;;;;;;;4.00;2.90;;;20.00;99.00;;;;;;10376728;28;20223;-81
2023/09/26 17:02:04;;;;;;;3.20;2.90;;;19.90;99.20;;;;;;10388230;28;20267;-81
2023/09/26 17:07:22;;;;;;;2.63;2.53;;;19.70;99.40;;;;;;10336328;28;20279;-81
2023/09/26 17:12:45;;;;;;;3.33;3.03;;;19.50;99.60;;;;;;10351290;28;20223;-80
2023/09/26 17:18:05;;;;;;;3.10;2.80;;;19.40;99.80;;;;;;10332744;28;20200;-81
2023/09/26 17:23:17;;;;;;;3.07;2.87;;;19.30;99.90;;;;;;10361838;28;20246;-81
2023/09/26 17:28:21;;;;;;;3.03;2.83;;;19.20;99.90;;;;;;10345382;28;20203;-80
2023/09/26 17:33:23;;;;;;;3.40;3.07;;;19.00;99.90;;;;;;10343614;28;20227;-81
2023/09/26 17:38:35;;;;;;;2.67;2.47;;;19.00;99.90;;;;;;10355030;28;20215;-81
2023/09/26 17:43:43;;;;;;;3.70;3.43;;;18.90;99.90;;;;;;10365317;28;20283;-80
2023/09/26 17:48:55;;;;;;;7.37;3.17;;;18.80;99.90;;;;;;10377626;28;20242;-79
2023/09/26 17:54:10;;;;;;;4.23;3.80;;;18.80;99.90;;;;;;10372972;28;20238;-78
2023/09/26 17:59:26;;;;;;;2.80;2.60;;;18.70;99.90;;;;;;10348971;28;20590;-80
2023/09/26 18:11:19;;;;;;;3.50;3.30;;;18.60;99.90;;;;;;10353385;28;20234;-79
2023/09/26 19:02:27;;;;;;;3.43;3.20;;;18.00;99.90;;;;;;10273832;28;20207;-78
2023/09/26 20:07:03;;;;;;;;;;;;;;;;;;;;;
2023/09/26 20:20:05;;;;;;;5.50;5.00;;;17.40;99.90;;;;;;10213838;28;20216;-79
2023/09/26 20:25:34;;;;;;;5.33;4.93;;;17.30;99.90;;;;;;10266411;28;20235;-80
2023/09/26 20:30:56;;;;;;;5.23;4.83;;;17.30;99.90;;;;;;10269207;28;20225;-80
2023/09/26 20:42:49;;;;;;;5.70;5.20;;;17.20;99.90;;;;;;10237180;28;20255;-79
2023/09/26 20:49:22;;;;;;;5.77;5.30;;;17.20;99.90;;;;;;10267662;28;20200;-80
2023/09/26 21:02:20;;;;;;;5.57;5.17;;;17.10;99.90;;;;;;10263630;28;20345;-79
2023/09/26 21:15:15;;;;;;;5.80;5.30;;;17.00;99.90;;;;;;10194304;28;20231;-79
2023/09/26 21:22:10;;;;;;;6.20;5.80;;;17.00;99.90;;;;;;10202873;28;20877;-79
2023/09/26 23:19:20;;;;;;;5.00;4.70;;;16.20;99.90;;;;;;10238017;28;20207;-80
2023/09/26 23:31:07;;;;;;;6.07;5.67;;;16.10;99.90;;;;;;10275866;28;20204;-79
2023/09/26 23:37:38;;;;;;;5.90;5.50;;;16.10;99.90;;;;;;10292521;28;20221;-79
2023/09/26 23:55:31;;;;;;;;;;;;;;;;;;;;;
